Time;durP1;ratioP1;P1;durP2;ratioP2;P2;SDS_P1;SDS_P2;PMS_P1;PMS_P2;Temp;Humidity;BMP_temperature;BMP_pressure;BME280_temperature;BME280_humidity;BME280_pressure;Samples;Min_cycle;Max_cycle;Signal;HPM_P1;HPM_P2
2021/04/14 00:01:09;;;;;;;14.27;8.35;;;;;;;8.35;68.33;102758.81;5029551;28;20418;-48
2021/04/14 00:03:56;;;;;;;14.13;7.50;;;;;;;8.28;68.34;102755.53;5029827;28;20064;-50
2021/04/14 00:06:45;;;;;;;14.52;7.18;;;;;;;8.22;68.51;102759.38;5028696;28;20084;-48
2021/04/14 00:09:32;;;;;;;11.98;6.45;;;;;;;8.23;68.50;102758.28;5027506;28;20742;-50
2021/04/14 00:12:19;;;;;;;13.80;5.25;;;;;;;8.28;67.99;102759.13;5014804;28;20494;-50
2021/04/14 00:15:27;;;;;;;11.65;5.57;;;;;;;8.20;68.42;102767.13;5009381;28;20488;-52
2021/04/14 00:18:14;;;;;;;10.80;4.88;;;;;;;8.15;68.31;102764.38;5008944;28;20050;-48
2021/04/14 00:21:01;;;;;;;12.43;6.53;;;;;;;8.17;68.51;102767.69;5008284;28;20185;-49
2021/04/14 00:23:47;;;;;;;9.93;4.45;;;;;;;8.20;68.28;102764.34;5008889;28;20054;-51
2021/04/14 00:26:34;;;;;;;9.80;4.50;;;;;;;8.17;68.37;102759.41;5013838;28;20164;-47
2021/04/14 00:29:21;;;;;;;8.48;4.72;;;;;;;8.16;68.52;102766.00;5021016;28;20091;-46
2021/04/14 00:32:08;;;;;;;9.98;5.55;;;;;;;8.12;68.84;102765.75;5029069;28;20056;-46
2021/04/14 00:34:55;;;;;;;11.45;6.35;;;;;;;8.13;68.82;102761.06;5028986;28;20064;-48
2021/04/14 00:37:42;;;;;;;12.68;6.55;;;;;;;8.12;68.74;102762.19;5029195;28;20053;-50
2021/04/14 00:40:35;;;;;;;12.25;5.88;;;;;;;8.08;69.07;102766.59;5029663;28;20489;-49
2021/04/14 00:43:28;;;;;;;10.10;6.13;;;;;;;8.13;69.18;102761.06;5010057;28;20140;-50
2021/04/14 00:46:15;;;;;;;12.68;6.53;;;;;;;8.19;68.73;102769.03;5010431;28;20491;-49
2021/04/14 00:49:02;;;;;;;13.55;5.72;;;;;;;8.21;69.26;102760.47;5011410;28;20449;-47
2021/04/14 00:51:49;;;;;;;15.15;6.63;;;;;;;8.25;68.83;102758.81;5011824;28;20188;-46
2021/04/14 00:54:35;;;;;;;18.02;8.02;;;;;;;8.26;68.96;102771.53;5011546;28;20188;-46
2021/04/14 00:57:26;;;;;;;11.07;6.50;;;;;;;8.26;69.14;102766.00;5024072;28;20045;-48
2021/04/14 01:00:27;;;;;;;12.90;5.57;;;;;;;8.26;69.01;102752.22;5031232;28;20053;-48
2021/04/14 01:03:21;;;;;;;10.27;5.50;;;;;;;8.32;69.13;102762.13;5029531;28;20041;-49
2021/04/14 01:06:22;;;;;;;10.27;6.55;;;;;;;8.30;69.08;102758.84;5030042;28;20096;-50
2021/04/14 01:09:08;;;;;;;12.75;7.20;;;;;;;8.28;69.25;102761.06;5028903;28;20064;-46
2021/04/14 01:11:56;;;;;;;11.43;6.82;;;;;;;8.26;69.44;102764.06;5029787;28;20115;-51
2021/04/14 01:14:44;;;;;;;15.48;8.30;;;;;;;8.25;69.19;102769.88;5030090;28;20048;-46
2021/04/14 01:17:30;;;;;;;13.32;6.78;;;;;;;8.24;69.37;102759.91;5030311;28;20115;-48
2021/04/14 01:20:17;;;;;;;11.07;6.05;;;;;;;8.28;69.40;102764.66;5029364;28;20069;-49
2021/04/14 01:23:06;;;;;;;14.98;7.35;;;;;;;8.34;69.11;102760.75;5029348;28;20104;-51
2021/04/14 01:25:53;;;;;;;10.20;7.10;;;;;;;8.38;69.44;102763.78;5028064;28;20107;-50
2021/04/14 01:28:42;;;;;;;13.27;5.88;;;;;;;8.35;69.57;102751.38;5029912;28;20045;-46
2021/04/14 01:31:33;;;;;;;10.35;6.25;;;;;;;8.36;69.65;102754.97;5026574;28;20049;-48
2021/04/14 01:34:20;;;;;;;15.48;7.85;;;;;;;8.32;69.93;102760.22;5033566;28;20047;-48
2021/04/14 01:36:46;;;;;;;13.23;6.25;;;;;;;8.33;69.96;102758.28;5034423;28;20041;-49
2021/04/14 01:39:14;;;;;;;15.18;7.35;;;;;;;8.33;69.85;102750.84;5016731;28;20042;-48
2021/04/14 01:41:42;;;;;;;17.15;7.25;;;;;;;8.33;69.95;102761.88;5032788;28;20525;-48
2021/04/14 01:44:12;;;;;;;15.30;6.78;;;;;;;8.34;70.19;102763.50;5033623;28;20258;-49
2021/04/14 01:46:42;;;;;;;12.30;7.05;;;;;;;8.36;70.20;102766.00;5034503;28;20083;-50
2021/04/14 01:49:11;;;;;;;13.07;6.18;;;;;;;8.37;70.28;102757.44;5034368;28;20065;-49
2021/04/14 01:51:37;;;;;;;15.82;8.40;;;;;;;8.45;70.34;102764.28;5033946;28;20046;-46
2021/04/14 01:54:05;;;;;;;9.75;6.35;;;;;;;8.40;70.63;102756.03;5033617;28;20042;-49
2021/04/14 01:56:32;;;;;;;13.57;8.55;;;;;;;8.43;70.55;102766.53;5033619;28;20053;-47
2021/04/14 01:58:58;;;;;;;13.55;8.30;;;;;;;8.43;70.94;102758.25;5033633;28;20080;-46
2021/04/14 02:01:25;;;;;;;12.68;6.47;;;;;;;8.37;71.18;102757.44;5016535;28;20049;-53
2021/04/14 02:03:51;;;;;;;12.02;7.93;;;;;;;8.32;71.34;102751.09;5000285;28;20068;-51
2021/04/14 02:06:18;;;;;;;12.55;8.32;;;;;;;8.28;71.71;102758.31;5033623;28;20049;-52
2021/04/14 02:08:44;;;;;;;13.63;8.95;;;;;;;8.25;71.81;102759.66;5033832;28;20076;-55
2021/04/14 02:11:13;;;;;;;16.90;8.38;;;;;;;8.25;72.01;102758.81;5030569;28;20116;-47
2021/04/14 02:13:41;;;;;;;12.70;8.23;;;;;;;8.27;72.04;102756.63;5013426;28;20050;-47
2021/04/14 02:16:12;;;;;;;14.27;7.75;;;;;;;8.23;72.21;102755.53;5012599;28;20096;-52
2021/04/14 02:18:39;;;;;;;16.60;8.25;;;;;;;8.22;72.20;102753.88;5012821;28;20049;-51
2021/04/14 02:21:05;;;;;;;11.65;8.50;;;;;;;8.24;71.95;102751.63;5012771;28;20073;-50
2021/04/14 02:23:36;;;;;;;11.57;6.47;;;;;;;8.17;72.34;102751.97;5012754;28;20068;-49
2021/04/14 02:26:10;;;;;;;13.95;8.13;;;;;;;8.14;72.60;102751.69;5014894;28;20538;-50
2021/04/14 02:28:37;;;;;;;12.00;7.47;;;;;;;8.15;72.31;102758.88;5032714;28;20050;-47
2021/04/14 02:31:05;;;;;;;17.15;9.15;;;;;;;8.06;72.48;102750.31;5032827;28;20140;-46
2021/04/14 02:33:32;;;;;;;19.55;8.18;;;;;;;7.98;72.82;102754.47;5052405;28;20051;-46
2021/04/14 02:35:58;;;;;;;14.63;8.05;;;;;;;7.89;73.06;102753.38;5051939;28;20110;-47
2021/04/14 02:38:25;;;;;;;10.73;7.93;;;;;;;7.79;73.04;102760.84;5041346;28;20061;-51
2021/04/14 02:40:51;;;;;;;15.20;8.75;;;;;;;7.67;73.56;102752.88;5030296;28;20045;-48
2021/04/14 02:43:19;;;;;;;16.55;8.63;;;;;;;7.60;73.73;102746.78;5021966;28;20049;-52
2021/04/14 02:45:46;;;;;;;16.83;8.43;;;;;;;7.63;73.70;102750.94;5032462;28;20128;-45
2021/04/14 02:48:13;;;;;;;14.70;9.15;;;;;;;7.59;73.50;102761.69;5033335;28;20508;-48
2021/04/14 02:50:39;;;;;;;17.50;9.73;;;;;;;7.51;73.84;102759.50;5032619;28;20084;-50
2021/04/14 02:53:07;;;;;;;19.50;9.57;;;;;;;7.44;73.74;102758.91;5033002;28;20111;-50
2021/04/14 02:55:34;;;;;;;15.40;9.57;;;;;;;7.39;73.80;102750.66;5033901;28;20049;-49
2021/04/14 02:58:01;;;;;;;20.17;10.43;;;;;;;7.40;73.78;102755.09;5051542;28;20072;-46
2021/04/14 03:00:28;;;;;;;20.77;11.32;;;;;;;7.34;73.88;102758.91;5052631;28;20490;-46
2021/04/14 03:02:55;;;;;;;18.02;9.80;;;;;;;7.28;73.78;102751.78;5052349;28;20076;-47
2021/04/14 03:05:27;;;;;;;16.73;10.43;;;;;;;7.28;74.12;102746.28;5051120;28;20423;-49
2021/04/14 03:07:55;;;;;;;20.92;11.45;;;;;;;7.24;73.99;102751.50;5052187;28;20068;-51
2021/04/14 03:10:23;;;;;;;20.83;11.02;;;;;;;7.17;73.96;102747.34;5049494;28;20684;-48
2021/04/14 03:12:51;;;;;;;16.83;10.43;;;;;;;7.07;74.32;102744.59;5035022;28;20132;-45
2021/04/14 03:15:22;;;;;;;18.58;9.85;;;;;;;7.00;74.76;102749.50;5030994;28;20376;-48
2021/04/14 03:17:48;;;;;;;20.25;11.43;;;;;;;6.92;74.48;102750.88;5031456;28;20050;-45
2021/04/14 03:20:15;;;;;;;17.17;10.25;;;;;;;6.91;74.62;102742.91;5031625;28;20053;-49
2021/04/14 03:22:42;;;;;;;16.85;10.05;;;;;;;6.93;74.68;102741.53;5031126;28;20064;-49
2021/04/14 03:25:09;;;;;;;18.02;9.63;;;;;;;6.95;74.33;102744.84;5031457;28;20099;-45
2021/04/14 03:27:35;;;;;;;16.08;10.20;;;;;;;6.95;74.05;102749.50;5045426;28;20500;-51
2021/04/14 03:30:05;;;;;;;14.60;10.02;;;;;;;6.94;74.05;102747.84;5051182;28;20037;-48
2021/04/14 03:32:32;;;;;;;18.02;11.23;;;;;;;6.90;74.28;102746.75;5051034;28;20071;-45
2021/04/14 03:34:59;;;;;;;16.00;9.85;;;;;;;6.83;74.07;102752.50;5050979;28;20052;-49
2021/04/14 03:37:26;;;;;;;16.73;9.63;;;;;;;6.79;74.40;102748.66;5047803;28;20037;-47
2021/04/14 03:39:52;;;;;;;16.17;8.77;;;;;;;6.78;74.26;102748.94;5030948;28;20132;-45
2021/04/14 03:42:18;;;;;;;17.02;10.00;;;;;;;6.73;74.63;102747.81;5042600;28;20041;-45
2021/04/14 03:44:47;;;;;;;21.83;9.93;;;;;;;6.68;74.76;102750.53;5050918;28;20144;-47
2021/04/14 03:47:13;;;;;;;17.45;8.60;;;;;;;6.66;74.50;102747.25;5032985;28;20051;-53
2021/04/14 03:49:39;;;;;;;13.23;9.35;;;;;;;6.60;74.70;102748.31;5051018;28;20055;-48
2021/04/14 03:52:06;;;;;;;16.42;10.05;;;;;;;6.56;74.90;102744.47;5050965;28;20041;-49
2021/04/14 03:54:32;;;;;;;19.75;11.10;;;;;;;6.57;74.79;102748.84;5050826;28;20076;-48
2021/04/14 03:57:16;;;;;;;15.07;9.60;;;;;;;6.61;74.79;102754.66;5038342;28;20037;-48
2021/04/14 04:00:01;;;;;;;14.60;8.80;;;;;;;6.63;74.52;102742.28;5030670;28;20048;-48
2021/04/14 04:02:27;;;;;;;16.90;10.00;;;;;;;6.64;74.52;102743.09;5031882;28;20048;-48
2021/04/14 04:04:53;;;;;;;12.75;8.68;;;;;;;6.62;74.65;102746.09;5030356;28;20060;-49
2021/04/14 04:07:19;;;;;;;14.50;9.00;;;;;;;6.57;74.77;102735.09;5030641;28;20053;-48
2021/04/14 04:09:46;;;;;;;12.80;8.02;;;;;;;6.61;75.06;102749.13;5030618;28;20133;-46
2021/04/14 04:12:12;;;;;;;15.85;8.73;;;;;;;6.65;74.73;102744.75;5031606;28;20120;-47
2021/04/14 04:14:47;;;;;;;15.10;9.00;;;;;;;6.65;74.71;102751.06;5029784;28;20128;-44
2021/04/14 04:17:20;;;;;;;13.35;8.18;;;;;;;6.64;74.89;102749.44;5031423;28;20036;-48
2021/04/14 04:19:47;;;;;;;18.30;8.45;;;;;;;6.67;74.77;102759.88;5031643;28;20072;-48
2021/04/14 04:22:19;;;;;;;14.65;9.00;;;;;;;6.68;74.58;102767.06;5031640;28;20084;-46
2021/04/14 04:24:50;;;;;;;14.57;9.87;;;;;;;6.66;74.85;102760.16;5031690;28;20072;-47
2021/04/14 04:27:18;;;;;;;14.27;8.65;;;;;;;6.64;74.85;102759.63;5042604;28;20553;-47
2021/04/14 04:29:44;;;;;;;11.80;8.27;;;;;;;6.61;75.04;102763.72;5051949;28;20084;-52
2021/04/14 04:32:11;;;;;;;11.63;8.43;;;;;;;6.63;75.00;102764.28;5051057;28;20053;-47
2021/04/14 04:34:38;;;;;;;14.10;9.18;;;;;;;6.62;74.70;102759.88;5051030;28;20048;-44
2021/04/14 04:37:04;;;;;;;14.48;8.20;;;;;;;6.54;74.74;102760.38;5050557;28;20053;-50
2021/04/14 04:39:30;;;;;;;13.15;7.75;;;;;;;6.52;75.20;102751.59;5030102;28;20136;-51
2021/04/14 04:41:57;;;;;;;9.95;7.40;;;;;;;6.54;74.83;102760.38;5039464;28;20568;-45
2021/04/14 04:44:24;;;;;;;16.38;8.57;;;;;;;6.51;74.85;102754.63;5050297;28;20075;-50
2021/04/14 04:46:50;;;;;;;14.38;8.20;;;;;;;6.42;74.91;102762.56;5050678;28;20444;-47
2021/04/14 04:49:17;;;;;;;14.15;10.05;;;;;;;6.37;75.34;102758.94;5050638;28;20063;-49
2021/04/14 04:51:43;;;;;;;13.18;7.80;;;;;;;6.34;75.34;102768.56;5050044;28;20469;-49
2021/04/14 04:54:10;;;;;;;12.80;8.57;;;;;;;6.31;75.22;102766.34;5031919;28;20056;-47
2021/04/14 04:56:37;;;;;;;12.18;7.95;;;;;;;6.26;75.20;102762.72;5046594;28;20099;-47
2021/04/14 04:59:04;;;;;;;11.32;7.90;;;;;;;6.21;75.16;102763.53;5031365;28;20099;-47
2021/04/14 05:01:30;;;;;;;11.35;8.98;;;;;;;6.10;75.73;102764.56;5031433;28;20539;-46
2021/04/14 05:03:56;;;;;;;14.52;8.25;;;;;;;6.05;75.72;102756.31;5031260;28;20446;-45
2021/04/14 05:06:23;;;;;;;14.35;8.25;;;;;;;6.03;75.46;102761.25;5030974;28;20056;-52
2021/04/14 05:08:49;;;;;;;12.55;8.13;;;;;;;6.00;75.47;102761.78;5034105;28;20049;-47
2021/04/14 05:11:15;;;;;;;13.02;8.38;;;;;;;6.05;75.06;102770.06;5037678;28;20132;-48
2021/04/14 05:14:02;;;;;;;15.75;8.95;;;;;;;6.00;74.89;102762.59;5053110;28;20128;-47
2021/04/14 05:16:49;;;;;;;17.30;9.50;;;;;;;5.94;75.15;102773.81;5052242;28;20493;-49
2021/04/14 05:19:36;;;;;;;15.88;8.85;;;;;;;5.89;75.55;102776.53;5038793;28;20051;-47
2021/04/14 05:22:24;;;;;;;12.27;7.65;;;;;;;5.86;75.29;102769.66;5052644;28;20497;-49
2021/04/14 05:25:14;;;;;;;15.05;8.43;;;;;;;5.82;75.44;102781.41;5053266;28;20091;-47
2021/04/14 05:28:09;;;;;;;11.38;7.25;;;;;;;5.80;75.32;102773.41;5050890;28;20124;-49
2021/04/14 05:30:55;;;;;;;11.85;7.40;;;;;;;5.86;74.87;102768.81;5053564;28;20110;-47
2021/04/14 05:33:42;;;;;;;11.50;6.97;;;;;;;5.78;75.09;102777.53;5053679;28;20784;-47
2021/04/14 05:36:29;;;;;;;13.43;6.55;;;;;;;5.77;75.01;102781.38;5051388;28;20506;-47
2021/04/14 05:39:15;;;;;;;14.52;8.02;;;;;;;5.75;75.29;102783.53;5034070;28;20175;-48
2021/04/14 05:45:52;;;;;;;11.65;7.88;;;;;;;5.63;75.17;102786.50;5039738;28;20053;-46
2021/04/14 05:48:18;;;;;;;14.80;8.18;;;;;;;5.65;75.41;102797.22;5054103;28;20801;-49
2021/04/14 05:50:44;;;;;;;14.05;8.20;;;;;;;5.67;75.15;102781.28;5052190;28;20474;-49
2021/04/14 05:53:10;;;;;;;12.60;8.20;;;;;;;5.64;75.10;102784.56;5053624;28;20057;-45
2021/04/14 05:55:37;;;;;;;10.45;7.22;;;;;;;5.64;75.70;102787.31;5053446;28;20431;-48
2021/04/14 05:58:03;;;;;;;9.55;7.40;;;;;;;5.71;75.30;102787.91;5053872;28;20076;-50
2021/04/14 06:00:29;;;;;;;13.55;7.43;;;;;;;5.82;75.09;102789.66;5051607;28;20466;-48
2021/04/14 06:02:55;;;;;;;11.38;7.35;;;;;;;5.89;75.07;102788.38;5052369;28;20397;-48
2021/04/14 06:05:25;;;;;;;13.75;7.43;;;;;;;5.90;74.69;102797.44;5052370;28;20394;-48
2021/04/14 06:07:51;;;;;;;12.10;7.88;;;;;;;5.85;75.07;102800.97;5053455;28;20589;-49
2021/04/14 06:10:20;;;;;;;14.95;8.07;;;;;;;5.81;75.44;102796.22;5068551;28;20052;-48
2021/04/14 06:12:48;;;;;;;13.15;7.55;;;;;;;5.79;75.50;102806.66;5052591;28;20090;-48
2021/04/14 06:15:18;;;;;;;15.18;7.72;;;;;;;5.79;75.37;102803.91;5047838;28;20432;-50
2021/04/14 06:17:44;;;;;;;12.57;7.38;;;;;;;5.83;75.56;102816.88;5052727;28;20077;-49
2021/04/14 06:20:14;;;;;;;12.27;8.27;;;;;;;5.85;75.66;102822.16;5052837;28;20120;-50
2021/04/14 06:22:41;;;;;;;16.15;9.32;;;;;;;5.88;75.37;102818.84;5052679;28;20092;-48
2021/04/14 06:25:11;;;;;;;12.65;8.10;;;;;;;5.93;75.76;102825.22;5053041;28;20049;-46
2021/04/14 06:27:44;;;;;;;15.63;9.05;;;;;;;5.99;75.76;102815.09;5052010;28;20041;-46
2021/04/14 06:30:12;;;;;;;16.50;9.30;;;;;;;6.04;75.63;102820.63;5051162;28;20041;-45
2021/04/14 06:32:40;;;;;;;16.88;10.18;;;;;;;6.10;75.76;102836.06;5052792;28;20049;-45
2021/04/14 06:35:08;;;;;;;17.02;9.90;;;;;;;6.19;75.54;102833.66;5052692;28;20530;-46
2021/04/14 06:37:34;;;;;;;19.80;10.43;;;;;;;6.25;75.98;102827.91;5048771;28;20052;-45
2021/04/14 06:40:38;;;;;;;18.48;10.77;;;;;;;6.28;76.20;102835.63;5047597;28;20041;-44
2021/04/14 06:43:29;;;;;;;23.05;12.23;;;;;;;6.35;76.11;102827.16;5051195;28;20052;-46
2021/04/14 06:46:04;;;;;;;24.52;13.23;;;;;;;6.44;75.84;102829.13;5048669;28;20076;-45
2021/04/14 06:48:42;;;;;;;20.95;12.65;;;;;;;6.49;76.12;102840.16;5050914;28;20040;-48
2021/04/14 06:51:28;;;;;;;27.63;13.57;;;;;;;6.57;76.33;102836.91;5051381;28;20474;-45
2021/04/14 06:54:21;;;;;;;24.00;12.05;;;;;;;6.66;76.22;102837.22;5048925;28;20498;-48
2021/04/14 06:56:55;;;;;;;24.50;12.73;;;;;;;6.72;76.35;102839.72;5042366;28;20092;-46
2021/04/14 06:59:23;;;;;;;21.17;11.60;;;;;;;6.80;76.47;102843.91;5049395;28;20488;-46
2021/04/14 07:01:54;;;;;;;26.92;13.60;;;;;;;6.86;76.60;102840.06;5049629;28;20127;-46
2021/04/14 07:04:48;;;;;;;19.70;12.05;;;;;;;6.92;76.60;102844.50;5050540;28;20041;-45
2021/04/14 07:07:38;;;;;;;19.00;10.63;;;;;;;7.00;76.75;102851.41;5046252;28;20033;-47
2021/04/14 07:10:16;;;;;;;17.92;10.85;;;;;;;7.09;76.69;102847.03;5028004;28;20438;-44
2021/04/14 07:12:42;;;;;;;23.33;13.38;;;;;;;7.14;76.69;102847.91;5048259;28;20395;-45
2021/04/14 07:15:11;;;;;;;25.13;11.68;;;;;;;7.19;76.80;102838.81;5050106;28;20756;-46
2021/04/14 07:17:53;;;;;;;19.40;10.40;;;;;;;7.23;77.11;102846.25;5050890;28;20099;-49
2021/04/14 07:20:35;;;;;;;19.48;10.98;;;;;;;7.30;77.40;102846.00;5046394;28;20053;-45
2021/04/14 07:23:05;;;;;;;22.65;10.40;;;;;;;7.36;77.12;102839.38;5050058;28;20060;-46
2021/04/14 07:25:31;;;;;;;18.40;10.68;;;;;;;7.45;77.34;102845.19;5049839;28;20558;-45
2021/04/14 07:28:00;;;;;;;19.85;11.73;;;;;;;7.51;77.30;102841.34;5049118;28;20502;-46
2021/04/14 07:30:36;;;;;;;24.77;11.68;;;;;;;7.55;77.36;102837.75;5048081;28;20053;-46
2021/04/14 07:33:43;;;;;;;16.60;9.40;;;;;;;7.61;77.79;102833.91;5048316;28;20134;-49
2021/04/14 07:36:21;;;;;;;18.80;10.55;;;;;;;7.71;78.18;102836.66;5039770;28;20483;-46
2021/04/14 07:39:03;;;;;;;11.00;5.95;;;;;;;7.75;78.68;102836.97;5047701;28;20493;-48
2021/04/14 07:41:53;;;;;;;22.15;7.70;;;;;;;7.78;78.77;102831.69;5025165;28;20104;-51
2021/04/14 07:44:27;;;;;;;9.73;5.70;;;;;;;7.83;78.62;102828.97;5036616;28;20061;-45
2021/04/14 07:46:54;;;;;;;7.95;5.90;;;;;;;7.90;78.47;102828.69;5029358;28;20057;-47
2021/04/14 07:49:21;;;;;;;13.68;6.53;;;;;;;7.96;78.57;102833.94;5027223;28;20049;-47
2021/04/14 07:51:47;;;;;;;12.70;6.82;;;;;;;8.02;78.58;102836.69;5029351;28;20130;-47
2021/04/14 07:54:20;;;;;;;17.20;7.53;;;;;;;8.07;78.79;102831.16;5029647;28;20184;-49
2021/04/14 07:56:53;;;;;;;12.73;8.30;;;;;;;8.12;78.72;102836.66;5029955;28;20107;-48
2021/04/14 07:59:36;;;;;;;16.85;8.00;;;;;;;8.19;78.85;102826.16;5027051;28;20146;-46
2021/04/14 08:02:11;;;;;;;12.02;6.72;;;;;;;8.29;78.73;102834.44;5028147;28;20099;-48
2021/04/14 08:04:45;;;;;;;9.23;6.03;;;;;;;8.37;78.73;102831.13;5030213;28;20033;-48
2021/04/14 08:07:20;;;;;;;8.30;4.40;;;;;;;8.44;78.81;102831.66;5027414;28;20033;-46
2021/04/14 08:09:59;;;;;;;8.02;4.93;;;;;;;8.51;78.27;102834.94;5029175;28;20121;-51
2021/04/14 08:12:30;;;;;;;10.57;5.00;;;;;;;8.63;78.74;102829.94;5028459;28;20104;-50
2021/04/14 08:15:14;;;;;;;9.40;5.65;;;;;;;8.74;78.74;102839.00;5029202;28;20042;-49
2021/04/14 08:17:42;;;;;;;7.80;5.22;;;;;;;8.86;79.04;102848.66;5028409;28;20200;-46
2021/04/14 08:20:33;;;;;;;16.63;8.90;;;;;;;8.94;78.91;102837.00;5023787;28;20130;-47
2021/04/14 08:23:26;;;;;;;15.23;6.63;;;;;;;9.10;79.21;102835.81;5001546;28;20072;-49
2021/04/14 08:25:59;;;;;;;9.82;6.47;;;;;;;9.30;80.10;102842.31;5000512;28;20067;-51
2021/04/14 08:28:46;;;;;;;10.60;6.13;;;;;;;9.49;79.71;102840.53;5008063;28;20057;-49
2021/04/14 08:31:18;;;;;;;9.45;5.90;;;;;;;9.66;80.50;102835.47;5026574;28;20037;-46
2021/04/14 08:33:44;;;;;;;9.88;6.22;;;;;;;9.72;80.09;102840.66;5027158;28;20052;-50
2021/04/14 08:36:17;;;;;;;7.85;6.03;;;;;;;9.84;79.65;102833.91;5027737;28;20052;-52
2021/04/14 08:38:43;;;;;;;;;;;;;;;10.10;79.17;102841.72;5016197;28;20053;-48
2021/04/14 08:41:28;;;;;;;11.15;6.30;;;;;;;10.53;80.58;102836.31;5029222;28;19971;-51
2021/04/14 08:44:06;;;;;;;21.00;7.75;;;;;;;10.88;80.35;102838.69;5034007;28;20472;-47
2021/04/14 08:46:37;;;;;;;10.02;5.18;;;;;;;11.31;79.38;102843.06;5052899;28;20410;-49
2021/04/14 08:49:19;;;;;;;10.57;5.63;;;;;;;11.99;76.93;102848.16;5051672;28;20032;-49
2021/04/14 08:51:50;;;;;;;12.85;5.65;;;;;;;12.86;76.30;102842.59;5047714;28;20049;-51
2021/04/14 08:54:29;;;;;;;10.48;5.03;;;;;;;13.72;73.14;102852.63;5042969;28;20534;-52
2021/04/14 08:56:56;;;;;;;5.35;4.40;;;;;;;13.97;72.18;102852.84;5044354;28;20068;-52
2021/04/14 08:59:23;;;;;;;11.48;4.45;;;;;;;13.94;70.52;102853.47;5045029;28;20129;-48
2021/04/14 09:01:51;;;;;;;6.72;4.35;;;;;;;13.92;68.64;102858.53;5043412;28;20477;-49
2021/04/14 09:04:19;;;;;;;7.53;3.97;;;;;;;14.25;67.42;102858.22;5052329;28;20040;-49
2021/04/14 09:06:47;;;;;;;5.97;4.10;;;;;;;14.55;65.76;102851.88;5052157;28;20480;-49
2021/04/14 09:09:21;;;;;;;8.32;3.92;;;;;;;14.21;63.72;102854.44;5052848;28;20053;-50
2021/04/14 09:12:17;;;;;;;6.93;3.75;;;;;;;14.66;62.90;102852.41;5051408;28;20073;-49
2021/04/14 09:14:44;;;;;;;5.00;2.75;;;;;;;14.72;63.15;102854.72;5027251;28;20057;-50
2021/04/14 09:17:10;;;;;;;5.75;3.17;;;;;;;14.48;62.31;102857.09;5052459;28;20033;-50
2021/04/14 09:19:42;;;;;;;7.03;3.88;;;;;;;13.90;61.05;102862.75;5052437;28;20048;-46
2021/04/14 09:22:24;;;;;;;9.45;4.90;;;;;;;13.36;60.67;102861.81;5044322;28;20107;-47
2021/04/14 09:24:50;;;;;;;;;;;;;;;12.89;61.11;102855.88;5048834;28;20045;-47
2021/04/14 09:27:38;;;;;;;7.55;3.08;;;;;;;12.66;61.30;102861.31;5051455;28;19974;-50
2021/04/14 09:30:29;;;;;;;6.63;4.28;;;;;;;12.30;61.63;102853.97;5051268;28;20053;-48
2021/04/14 09:32:57;;;;;;;4.03;3.08;;;;;;;12.36;62.14;102850.81;5050984;28;20029;-46
2021/04/14 09:35:29;;;;;;;6.80;2.88;;;;;;;12.15;61.79;102850.31;5051460;28;20041;-45
2021/04/14 09:38:14;;;;;;;5.10;3.35;;;;;;;11.91;61.75;102854.38;5052687;28;20041;-45
2021/04/14 09:40:41;;;;;;;6.35;3.35;;;;;;;12.21;62.26;102856.63;5051186;28;20086;-45
2021/04/14 09:43:16;;;;;;;5.68;3.67;;;;;;;13.14;61.84;102858.13;5049777;28;20090;-48
2021/04/14 09:45:58;;;;;;;4.68;2.88;;;;;;;13.77;61.26;102855.28;5049129;28;20053;-47
2021/04/14 09:48:36;;;;;;;9.48;2.22;;;;;;;14.09;60.82;102854.19;5050897;28;20041;-46
2021/04/14 09:51:16;;;;;;;3.40;2.15;;;;;;;13.88;57.87;102865.84;5062732;28;20045;-47
2021/04/14 09:53:43;;;;;;;4.55;2.45;;;;;;;14.22;59.44;102858.84;5041506;28;20130;-48
2021/04/14 09:56:20;;;;;;;4.25;3.25;;;;;;;14.91;58.54;102857.25;5049908;28;20045;-46
2021/04/14 09:59:02;;;;;;;3.95;2.78;;;;;;;15.58;56.84;102852.97;5048538;28;20447;-46
2021/04/14 10:01:32;;;;;;;2.42;1.90;;;;;;;16.07;57.37;102853.59;5049555;28;20206;-49
2021/04/14 10:04:01;;;;;;;4.10;1.80;;;;;;;16.57;56.37;102846.25;5048729;28;20068;-48
2021/04/14 10:06:29;;;;;;;2.13;1.45;;;;;;;16.80;55.16;102855.19;5051453;28;20123;-49
2021/04/14 10:09:05;;;;;;;2.83;1.27;;;;;;;16.99;53.79;102852.81;5052165;28;20514;-48
2021/04/14 10:11:35;;;;;;;4.60;1.63;;;;;;;17.17;53.18;102848.72;5049336;28;20106;-49
2021/04/14 10:14:12;;;;;;;3.70;1.52;;;;;;;17.27;48.73;102851.13;5050749;28;20048;-49
2021/04/14 10:16:38;;;;;;;3.65;0.88;;;;;;;17.37;51.12;102845.13;5051845;28;20048;-49
2021/04/14 10:19:09;;;;;;;1.92;1.20;;;;;;;17.17;50.18;102851.53;5047415;28;20045;-50
2021/04/14 10:21:40;;;;;;;1.75;0.90;;;;;;;17.22;50.15;102844.91;5047090;28;20064;-47
2021/04/14 10:24:16;;;;;;;4.05;1.60;;;;;;;17.33;49.31;102838.59;5036991;28;20045;-47
2021/04/14 10:26:52;;;;;;;2.00;0.80;;;;;;;17.48;48.06;102843.56;5042716;28;20520;-52
2021/04/14 10:29:29;;;;;;;2.85;1.13;;;;;;;17.49;48.55;102839.63;5050341;28;20375;-52
2021/04/14 10:31:58;;;;;;;1.00;0.80;;;;;;;17.60;48.25;102846.47;5050195;28;20505;-50
2021/04/14 10:34:36;;;;;;;0.73;0.57;;;;;;;17.56;47.04;102839.91;5048299;28;20041;-48
2021/04/14 10:37:13;;;;;;;4.00;0.85;;;;;;;17.51;47.20;102848.50;5050094;28;20402;-48
2021/04/14 10:39:41;;;;;;;1.42;0.63;;;;;;;17.40;47.91;102852.84;5050530;28;20049;-48
2021/04/14 10:42:27;;;;;;;3.63;0.90;;;;;;;17.13;46.20;102846.97;5049745;28;20048;-51
2021/04/14 10:45:06;;;;;;;1.70;0.68;;;;;;;16.91;47.57;102848.06;5033136;28;20139;-50
2021/04/14 10:47:37;;;;;;;1.73;0.70;;;;;;;16.77;47.84;102850.28;5050402;28;20064;-53
2021/04/14 10:50:28;;;;;;;2.00;0.77;;;;;;;16.64;47.31;102848.53;5050257;28;20546;-49
2021/04/14 10:53:00;;;;;;;3.70;0.98;;;;;;;16.47;48.25;102840.97;5039012;28;20628;-49
2021/04/14 10:55:32;;;;;;;1.42;0.80;;;;;;;16.38;48.62;102849.41;5050192;28;20114;-48
2021/04/14 10:58:02;;;;;;;2.50;0.98;;;;;;;16.28;48.96;102844.16;5042262;28;20056;-46
2021/04/14 11:00:33;;;;;;;2.17;0.90;;;;;;;16.13;49.06;102838.28;5050178;28;20056;-46
2021/04/14 11:03:10;;;;;;;2.95;0.93;;;;;;;15.86;48.70;102847.84;5038946;28;20142;-53
2021/04/14 11:05:40;;;;;;;0.95;0.63;;;;;;;15.59;49.35;102846.25;5032699;28;20071;-46
2021/04/14 11:08:08;;;;;;;0.95;0.88;;;;;;;15.46;49.84;102843.63;5043267;28;20048;-50
2021/04/14 11:10:37;;;;;;;4.70;1.52;;;;;;;15.30;49.81;102848.00;5049586;28;20064;-47
2021/04/14 11:13:06;;;;;;;2.15;0.77;;;;;;;14.99;49.93;102839.72;5049675;28;20041;-47
2021/04/14 11:15:40;;;;;;;1.80;1.00;;;;;;;14.80;50.04;102848.34;5049763;28;20076;-51
2021/04/14 11:18:09;;;;;;;3.50;1.40;;;;;;;14.56;50.60;102843.19;5050710;28;20065;-48
2021/04/14 11:20:53;;;;;;;3.80;1.10;;;;;;;14.44;50.08;102844.94;5049177;28;20110;-48
2021/04/14 11:23:26;;;;;;;2.85;1.17;;;;;;;14.29;50.74;102842.53;5048685;28;20111;-46
2021/04/14 11:26:09;;;;;;;1.75;0.80;;;;;;;14.21;51.42;102848.88;5064545;27;898981;-48
2021/04/14 11:28:49;;;;;;;4.63;1.10;;;;;;;14.09;51.00;102838.31;5078358;28;20102;-47
2021/04/14 11:31:30;;;;;;;4.15;0.98;;;;;;;13.92;51.71;102847.41;5067152;28;20068;-48
2021/04/14 11:33:58;;;;;;;2.40;1.40;;;;;;;13.68;51.67;102849.66;5068493;28;20067;-48
2021/04/14 11:36:24;;;;;;;2.05;1.10;;;;;;;13.56;52.33;102852.16;5078985;28;20131;-51
2021/04/14 11:39:02;;;;;;;3.97;1.52;;;;;;;13.46;53.11;102846.84;5078865;28;20436;-46
2021/04/14 11:41:37;;;;;;;2.47;1.30;;;;;;;13.32;52.91;102851.59;5073775;28;20040;-46
2021/04/14 11:44:22;;;;;;;4.95;1.38;;;;;;;13.33;52.72;102848.53;5074053;28;20056;-47
2021/04/14 11:47:00;;;;;;;2.58;1.88;;;;;;;13.26;53.39;102850.09;5077857;28;20751;-47
2021/04/14 11:49:37;;;;;;;3.58;1.83;;;;;;;13.23;53.51;102845.97;5086131;28;20386;-46
2021/04/14 11:52:13;;;;;;;4.00;1.25;;;;;;;13.23;54.03;102845.16;5079226;28;20389;-47
2021/04/14 11:54:39;;;;;;;2.42;1.35;;;;;;;13.28;54.29;102840.31;5084237;28;20040;-51
2021/04/14 11:57:15;;;;;;;3.95;1.40;;;;;;;13.27;54.61;102840.59;5077303;28;20045;-47
2021/04/14 11:59:46;;;;;;;4.05;1.13;;;;;;;13.24;54.59;102855.13;5069854;28;20036;-47
2021/04/14 12:02:25;;;;;;;4.03;1.40;;;;;;;13.24;54.63;102844.81;5078723;28;20068;-48